sensor_id;sensor_type;location;lat;lon;timestamp;temperature;humidity
2112;DHT22;1062;52.538;13.400;2023-03-01T00:00:38;-0.40;99.90
2112;DHT22;1062;52.538;13.400;2023-03-01T00:03:04;-0.40;99.90
2112;DHT22;1062;52.538;13.400;2023-03-01T00:05:29;-0.50;99.90
2112;DHT22;1062;52.538;13.400;2023-03-01T00:07:55;-0.50;99.90
2112;DHT22;1062;52.538;13.400;2023-03-01T00:10:21;-0.40;99.90
2112;DHT22;1062;52.538;13.400;2023-03-01T00:12:46;-0.40;99.90
2112;DHT22;1062;52.538;13.400;2023-03-01T00:15:12;-0.50;99.90
2112;DHT22;1062;52.538;13.400;2023-03-01T00:17:38;-0.60;99.90
2112;DHT22;1062;52.538;13.400;2023-03-01T00:20:04;-0.70;99.90
2112;DHT22;1062;52.538;13.400;2023-03-01T00:22:33;-0.70;99.90
2112;DHT22;1062;52.538;13.400;2023-03-01T00:24:59;-0.70;99.90
2112;DHT22;1062;52.538;13.400;2023-03-01T00:27:24;-0.80;99.90
2112;DHT22;1062;52.538;13.400;2023-03-01T00:29:50;-0.80;99.90
2112;DHT22;1062;52.538;13.400;2023-03-01T00:32:15;-0.80;99.90
2112;DHT22;1062;52.538;13.400;2023-03-01T00:34:41;-0.80;99.90
2112;DHT22;1062;52.538;13.400;2023-03-01T00:37:06;-0.80;99.90
2112;DHT22;1062;52.538;13.400;2023-03-01T00:39:32;-0.80;99.90
2112;DHT22;1062;52.538;13.400;2023-03-01T00:41:58;-0.80;99.90
2112;DHT22;1062;52.538;13.400;2023-03-01T00:44:24;-0.80;99.90
2112;DHT22;1062;52.538;13.400;2023-03-01T00:46:49;-0.80;99.90
2112;DHT22;1062;52.538;13.400;2023-03-01T00:49:15;-0.60;99.90
2112;DHT22;1062;52.538;13.400;2023-03-01T00:51:40;-0.50;99.90
2112;DHT22;1062;52.538;13.400;2023-03-01T00:54:09;-0.30;99.90
2112;DHT22;1062;52.538;13.400;2023-03-01T00:56:35;-0.30;99.90
2112;DHT22;1062;52.538;13.400;2023-03-01T00:59:01;-0.30;99.90
2112;DHT22;1062;52.538;13.400;2023-03-01T01:01:29;-0.30;99.90
2112;DHT22;1062;52.538;13.400;2023-03-01T01:03:57;-0.40;99.90
2112;DHT22;1062;52.538;13.400;2023-03-01T01:06:25;-0.50;99.90
2112;DHT22;1062;52.538;13.400;2023-03-01T01:08:52;-0.60;99.90
2112;DHT22;1062;52.538;13.400;2023-03-01T01:11:19;-0.60;99.90
2112;DHT22;1062;52.538;13.400;2023-03-01T01:13:46;-0.70;99.90
2112;DHT22;1062;52.538;13.400;2023-03-01T01:16:12;-0.70;99.90
2112;DHT22;1062;52.538;13.400;2023-03-01T01:18:38;-0.60;99.90
2112;DHT22;1062;52.538;13.400;2023-03-01T01:21:09;-0.60;99.90
2112;DHT22;1062;52.538;13.400;2023-03-01T01:23:36;-0.80;99.90
2112;DHT22;1062;52.538;13.400;2023-03-01T01:26:11;-0.80;99.90
2112;DHT22;1062;52.538;13.400;2023-03-01T01:28:37;-0.90;99.90
2112;DHT22;1062;52.538;13.400;2023-03-01T01:31:04;-0.80;99.90
2112;DHT22;1062;52.538;13.400;2023-03-01T01:33:29;-0.90;99.90
2112;DHT22;1062;52.538;13.400;2023-03-01T01:35:55;-0.90;99.90
2112;DHT22;1062;52.538;13.400;2023-03-01T01:38:21;-0.90;99.90
2112;DHT22;1062;52.538;13.400;2023-03-01T01:40:47;-0.90;99.90
2112;DHT22;1062;52.538;13.400;2023-03-01T01:43:26;-1.00;99.90
2112;DHT22;1062;52.538;13.400;2023-03-01T01:46:00;-1.00;99.90
2112;DHT22;1062;52.538;13.400;2023-03-01T01:48:32;-1.00;99.90
2112;DHT22;1062;52.538;13.400;2023-03-01T01:51:08;-1.00;99.90
2112;DHT22;1062;52.538;13.400;2023-03-01T01:53:35;-1.10;99.90
2112;DHT22;1062;52.538;13.400;2023-03-01T01:56:02;-1.10;99.90
2112;DHT22;1062;52.538;13.400;2023-03-01T01:58:29;-1.10;99.90
2112;DHT22;1062;52.538;13.400;2023-03-01T02:00:55;-1.30;99.90
2112;DHT22;1062;52.538;13.400;2023-03-01T02:03:28;-1.20;99.90
2112;DHT22;1062;52.538;13.400;2023-03-01T02:06:05;-1.20;99.90
2112;DHT22;1062;52.538;13.400;2023-03-01T02:08:35;-1.20;99.90
2112;DHT22;1062;52.538;13.400;2023-03-01T02:11:02;-1.10;99.90
2112;DHT22;1062;52.538;13.400;2023-03-01T02:13:30;-1.10;99.90
2112;DHT22;1062;52.538;13.400;2023-03-01T02:15:57;-1.20;99.90
2112;DHT22;1062;52.538;13.400;2023-03-01T02:18:23;-1.30;99.90
2112;DHT22;1062;52.538;13.400;2023-03-01T02:23:28;-1.40;99.90
2112;DHT22;1062;52.538;13.400;2023-03-01T02:26:01;-1.40;99.90
2112;DHT22;1062;52.538;13.400;2023-03-01T02:28:37;-1.40;99.90
2112;DHT22;1062;52.538;13.400;2023-03-01T02:31:07;-1.40;99.90
2112;DHT22;1062;52.538;13.400;2023-03-01T02:33:53;-1.40;99.90
2112;DHT22;1062;52.538;13.400;2023-03-01T02:36:29;-1.30;99.90
2112;DHT22;1062;52.538;13.400;2023-03-01T02:38:58;-1.30;99.90
2112;DHT22;1062;52.538;13.400;2023-03-01T02:41:26;-1.50;99.90
2112;DHT22;1062;52.538;13.400;2023-03-01T02:43:53;-1.40;99.90
2112;DHT22;1062;52.538;13.400;2023-03-01T02:46:22;-1.30;99.90
2112;DHT22;1062;52.538;13.400;2023-03-01T02:48:50;-1.30;99.90
2112;DHT22;1062;52.538;13.400;2023-03-01T02:56:35;-1.40;99.90
2112;DHT22;1062;52.538;13.400;2023-03-01T02:59:01;-1.50;99.90
2112;DHT22;1062;52.538;13.400;2023-03-01T03:01:28;-1.50;99.90
2112;DHT22;1062;52.538;13.400;2023-03-01T03:04:07;-1.60;99.90
2112;DHT22;1062;52.538;13.400;2023-03-01T03:06:33;-1.60;99.90
2112;DHT22;1062;52.538;13.400;2023-03-01T03:08:59;-1.60;99.90
2112;DHT22;1062;52.538;13.400;2023-03-01T03:11:25;-1.60;99.90
2112;DHT22;1062;52.538;13.400;2023-03-01T03:13:51;-1.60;99.90
2112;DHT22;1062;52.538;13.400;2023-03-01T03:16:17;-1.60;99.90
2112;DHT22;1062;52.538;13.400;2023-03-01T03:18:43;-1.60;99.90
2112;DHT22;1062;52.538;13.400;2023-03-01T03:21:10;-1.60;99.90
2112;DHT22;1062;52.538;13.400;2023-03-01T03:23:36;-1.50;99.90
2112;DHT22;1062;52.538;13.400;2023-03-01T03:26:03;-1.40;99.90
2112;DHT22;1062;52.538;13.400;2023-03-01T03:28:33;-1.40;99.90
2112;DHT22;1062;52.538;13.400;2023-03-01T03:30:59;-1.50;99.90
2112;DHT22;1062;52.538;13.400;2023-03-01T03:33:29;-1.60;99.90
2112;DHT22;1062;52.538;13.400;2023-03-01T03:35:55;-1.60;99.90
2112;DHT22;1062;52.538;13.400;2023-03-01T03:38:22;-1.70;99.90
2112;DHT22;1062;52.538;13.400;2023-03-01T03:40:48;-1.60;99.90
2112;DHT22;1062;52.538;13.400;2023-03-01T03:43:22;-1.70;99.90
2112;DHT22;1062;52.538;13.400;2023-03-01T03:45:49;-1.80;99.90
2112;DHT22;1062;52.538;13.400;2023-03-01T03:48:16;-1.80;99.90
2112;DHT22;1062;52.538;13.400;2023-03-01T03:50:48;-1.80;99.90
2112;DHT22;1062;52.538;13.400;2023-03-01T03:53:14;-1.80;99.90
2112;DHT22;1062;52.538;13.400;2023-03-01T03:55:40;-1.80;99.90
2112;DHT22;1062;52.538;13.400;2023-03-01T03:58:08;-1.80;99.90
2112;DHT22;1062;52.538;13.400;2023-03-01T04:00:40;-1.80;99.90
2112;DHT22;1062;52.538;13.400;2023-03-01T04:03:06;-1.80;99.90
2112;DHT22;1062;52.538;13.400;2023-03-01T04:05:32;-1.80;99.90
2112;DHT22;1062;52.538;13.400;2023-03-01T04:07:58;-1.80;99.90
2112;DHT22;1062;52.538;13.400;2023-03-01T04:10:29;-1.90;99.90
2112;DHT22;1062;52.538;13.400;2023-03-01T04:12:55;-1.90;99.90
2112;DHT22;1062;52.538;13.400;2023-03-01T04:15:22;-1.90;99.90
2112;DHT22;1062;52.538;13.400;2023-03-01T04:17:50;-1.90;99.90
2112;DHT22;1062;52.538;13.400;2023-03-01T04:20:19;-1.90;99.90
2112;DHT22;1062;52.538;13.400;2023-03-01T04:22:51;-1.90;99.90
2112;DHT22;1062;52.538;13.400;2023-03-01T04:25:18;-1.90;99.90
2112;DHT22;1062;52.538;13.400;2023-03-01T04:27:43;-2.00;99.90
2112;DHT22;1062;52.538;13.400;2023-03-01T04:30:10;-2.00;99.90
2112;DHT22;1062;52.538;13.400;2023-03-01T04:32:35;-2.00;99.90
2112;DHT22;1062;52.538;13.400;2023-03-01T04:35:01;-1.90;99.90
2112;DHT22;1062;52.538;13.400;2023-03-01T04:37:27;-2.00;99.90
2112;DHT22;1062;52.538;13.400;2023-03-01T04:39:53;-2.00;99.90
2112;DHT22;1062;52.538;13.400;2023-03-01T04:42:18;-2.00;99.90
2112;DHT22;1062;52.538;13.400;2023-03-01T04:44:45;-2.00;99.90
2112;DHT22;1062;52.538;13.400;2023-03-01T04:47:12;-2.00;99.90
2112;DHT22;1062;52.538;13.400;2023-03-01T04:49:38;-2.00;99.90
2112;DHT22;1062;52.538;13.400;2023-03-01T04:52:04;-2.00;99.90
2112;DHT22;1062;52.538;13.400;2023-03-01T04:54:32;-2.00;99.90
2112;DHT22;1062;52.538;13.400;2023-03-01T04:56:58;-2.00;99.90
2112;DHT22;1062;52.538;13.400;2023-03-01T04:59:24;-2.00;99.90
2112;DHT22;1062;52.538;13.400;2023-03-01T05:01:55;-2.00;99.90
2112;DHT22;1062;52.538;13.400;2023-03-01T05:04:21;-2.00;99.90
2112;DHT22;1062;52.538;13.400;2023-03-01T05:06:47;-2.00;99.90
2112;DHT22;1062;52.538;13.400;2023-03-01T05:09:12;-2.10;99.90
2112;DHT22;1062;52.538;13.400;2023-03-01T05:11:38;-2.00;99.90
2112;DHT22;1062;52.538;13.400;2023-03-01T05:14:05;-1.90;99.90
2112;DHT22;1062;52.538;13.400;2023-03-01T05:16:31;-2.00;99.90
2112;DHT22;1062;52.538;13.400;2023-03-01T05:18:58;-1.90;99.90
2112;DHT22;1062;52.538;13.400;2023-03-01T05:21:24;-1.80;99.90
2112;DHT22;1062;52.538;13.400;2023-03-01T05:23:50;-1.70;99.90
2112;DHT22;1062;52.538;13.400;2023-03-01T05:26:18;-1.90;99.90
2112;DHT22;1062;52.538;13.400;2023-03-01T05:28:44;-2.00;99.90
2112;DHT22;1062;52.538;13.400;2023-03-01T05:31:10;-2.10;99.90
2112;DHT22;1062;52.538;13.400;2023-03-01T05:33:37;-2.10;99.90
2112;DHT22;1062;52.538;13.400;2023-03-01T05:36:03;-2.10;99.90
2112;DHT22;1062;52.538;13.400;2023-03-01T05:38:29;-2.10;99.90
2112;DHT22;1062;52.538;13.400;2023-03-01T05:40:54;-2.10;99.90
2112;DHT22;1062;52.538;13.400;2023-03-01T05:43:20;-2.10;99.90
2112;DHT22;1062;52.538;13.400;2023-03-01T05:45:46;-2.10;99.90
2112;DHT22;1062;52.538;13.400;2023-03-01T05:48:12;-2.20;99.90
2112;DHT22;1062;52.538;13.400;2023-03-01T05:50:41;-2.20;99.90
2112;DHT22;1062;52.538;13.400;2023-03-01T05:53:11;-2.20;99.90
2112;DHT22;1062;52.538;13.400;2023-03-01T05:55:37;-2.20;99.90
2112;DHT22;1062;52.538;13.400;2023-03-01T05:58:06;-2.20;99.90
2112;DHT22;1062;52.538;13.400;2023-03-01T06:00:33;-2.20;99.90
2112;DHT22;1062;52.538;13.400;2023-03-01T06:03:00;-2.10;99.90
2112;DHT22;1062;52.538;13.400;2023-03-01T06:05:26;-2.10;99.90
2112;DHT22;1062;52.538;13.400;2023-03-01T06:07:53;-2.10;99.90
2112;DHT22;1062;52.538;13.400;2023-03-01T06:10:21;-2.10;99.90
2112;DHT22;1062;52.538;13.400;2023-03-01T06:12:47;-2.10;99.90
2112;DHT22;1062;52.538;13.400;2023-03-01T06:15:14;-2.10;99.90
2112;DHT22;1062;52.538;13.400;2023-03-01T06:17:42;-2.00;99.90
2112;DHT22;1062;52.538;13.400;2023-03-01T06:20:14;-1.90;99.90
2112;DHT22;1062;52.538;13.400;2023-03-01T06:22:40;-1.90;99.90
2112;DHT22;1062;52.538;13.400;2023-03-01T06:25:09;-1.80;99.90
2112;DHT22;1062;52.538;13.400;2023-03-01T06:27:35;-1.80;99.90
2112;DHT22;1062;52.538;13.400;2023-03-01T06:30:01;-1.70;99.90
2112;DHT22;1062;52.538;13.400;2023-03-01T06:32:26;-1.60;99.90
2112;DHT22;1062;52.538;13.400;2023-03-01T06:34:52;-1.50;99.90
2112;DHT22;1062;52.538;13.400;2023-03-01T06:37:18;-1.50;99.90
2112;DHT22;1062;52.538;13.400;2023-03-01T06:39:43;-1.40;99.90
2112;DHT22;1062;52.538;13.400;2023-03-01T06:42:09;-1.30;99.90
2112;DHT22;1062;52.538;13.400;2023-03-01T06:44:38;-1.30;99.90
2112;DHT22;1062;52.538;13.400;2023-03-01T06:47:04;-1.20;99.90
2112;DHT22;1062;52.538;13.400;2023-03-01T06:49:30;-1.10;99.90
2112;DHT22;1062;52.538;13.400;2023-03-01T06:51:56;-0.80;99.90
2112;DHT22;1062;52.538;13.400;2023-03-01T06:54:21;-0.70;99.90
2112;DHT22;1062;52.538;13.400;2023-03-01T06:56:48;-0.60;99.90
2112;DHT22;1062;52.538;13.400;2023-03-01T06:59:14;-0.40;99.90
2112;DHT22;1062;52.538;13.400;2023-03-01T07:01:39;-0.30;99.90
2112;DHT22;1062;52.538;13.400;2023-03-01T07:04:05;0.10;99.90
2112;DHT22;1062;52.538;13.400;2023-03-01T07:06:30;0.50;99.90
2112;DHT22;1062;52.538;13.400;2023-03-01T07:08:56;0.70;99.90
2112;DHT22;1062;52.538;13.400;2023-03-01T07:11:22;0.80;99.90
2112;DHT22;1062;52.538;13.400;2023-03-01T07:13:48;1.00;99.90
2112;DHT22;1062;52.538;13.400;2023-03-01T07:16:14;1.40;99.90
2112;DHT22;1062;52.538;13.400;2023-03-01T07:18:40;2.20;99.90
2112;DHT22;1062;52.538;13.400;2023-03-01T07:21:09;2.50;99.90
2112;DHT22;1062;52.538;13.400;2023-03-01T07:23:36;2.30;99.90
2112;DHT22;1062;52.538;13.400;2023-03-01T07:26:02;2.40;99.90
2112;DHT22;1062;52.538;13.400;2023-03-01T07:28:28;2.80;99.90
2112;DHT22;1062;52.538;13.400;2023-03-01T07:30:54;3.30;99.90
2112;DHT22;1062;52.538;13.400;2023-03-01T07:33:20;3.30;99.90
2112;DHT22;1062;52.538;13.400;2023-03-01T07:35:46;3.20;99.90
2112;DHT22;1062;52.538;13.400;2023-03-01T07:38:11;3.60;99.90
2112;DHT22;1062;52.538;13.400;2023-03-01T07:40:37;4.10;99.90
2112;DHT22;1062;52.538;13.400;2023-03-01T07:43:03;4.40;99.90
2112;DHT22;1062;52.538;13.400;2023-03-01T07:45:28;4.70;99.90
2112;DHT22;1062;52.538;13.400;2023-03-01T07:47:55;4.90;99.90
2112;DHT22;1062;52.538;13.400;2023-03-01T07:50:21;5.30;99.90
2112;DHT22;1062;52.538;13.400;2023-03-01T07:52:48;5.30;99.90
2112;DHT22;1062;52.538;13.400;2023-03-01T07:55:15;5.40;99.90
2112;DHT22;1062;52.538;13.400;2023-03-01T07:57:40;6.00;99.90
2112;DHT22;1062;52.538;13.400;2023-03-01T08:00:07;5.90;99.90
2112;DHT22;1062;52.538;13.400;2023-03-01T08:02:33;5.60;99.90
2112;DHT22;1062;52.538;13.400;2023-03-01T08:04:58;5.50;99.90
2112;DHT22;1062;52.538;13.400;2023-03-01T08:07:24;6.90;99.90
2112;DHT22;1062;52.538;13.400;2023-03-01T08:09:50;7.70;99.90
2112;DHT22;1062;52.538;13.400;2023-03-01T08:12:15;7.70;99.90
2112;DHT22;1062;52.538;13.400;2023-03-01T08:14:44;7.90;99.90
2112;DHT22;1062;52.538;13.400;2023-03-01T08:17:10;8.00;99.90
2112;DHT22;1062;52.538;13.400;2023-03-01T08:19:35;8.90;99.90
2112;DHT22;1062;52.538;13.400;2023-03-01T08:22:02;8.70;99.90
2112;DHT22;1062;52.538;13.400;2023-03-01T08:24:28;9.00;99.90
2112;DHT22;1062;52.538;13.400;2023-03-01T08:26:54;8.00;99.90
2112;DHT22;1062;52.538;13.400;2023-03-01T08:29:19;7.60;99.90
2112;DHT22;1062;52.538;13.400;2023-03-01T08:31:45;7.70;99.90
2112;DHT22;1062;52.538;13.400;2023-03-01T08:34:13;9.10;99.90
2112;DHT22;1062;52.538;13.400;2023-03-01T08:36:41;10.80;99.60
2112;DHT22;1062;52.538;13.400;2023-03-01T08:39:09;12.40;93.80
2112;DHT22;1062;52.538;13.400;2023-03-01T08:41:35;13.90;93.20
2112;DHT22;1062;52.538;13.400;2023-03-01T08:44:02;13.90;90.40
2112;DHT22;1062;52.538;13.400;2023-03-01T08:46:29;15.00;85.70
2112;DHT22;1062;52.538;13.400;2023-03-01T08:48:55;14.50;81.60
2112;DHT22;1062;52.538;13.400;2023-03-01T08:51:22;15.20;77.90
2112;DHT22;1062;52.538;13.400;2023-03-01T08:53:48;12.60;78.90
2112;DHT22;1062;52.538;13.400;2023-03-01T08:56:14;11.90;82.20
2112;DHT22;1062;52.538;13.400;2023-03-01T08:58:39;12.00;84.70
2112;DHT22;1062;52.538;13.400;2023-03-01T09:01:09;12.10;83.60
2112;DHT22;1062;52.538;13.400;2023-03-01T09:03:35;11.10;83.50
2112;DHT22;1062;52.538;13.400;2023-03-01T09:06:01;10.30;85.50
2112;DHT22;1062;52.538;13.400;2023-03-01T09:08:27;10.20;88.30
2112;DHT22;1062;52.538;13.400;2023-03-01T09:10:52;11.40;86.10
2112;DHT22;1062;52.538;13.400;2023-03-01T09:13:18;11.90;81.20
2112;DHT22;1062;52.538;13.400;2023-03-01T09:15:44;13.00;82.90
2112;DHT22;1062;52.538;13.400;2023-03-01T09:18:09;14.90;78.20
2112;DHT22;1062;52.538;13.400;2023-03-01T09:20:35;13.40;74.50
2112;DHT22;1062;52.538;13.400;2023-03-01T09:23:01;14.10;73.60
2112;DHT22;1062;52.538;13.400;2023-03-01T09:25:26;13.60;73.60
2112;DHT22;1062;52.538;13.400;2023-03-01T09:27:53;13.10;72.30
2112;DHT22;1062;52.538;13.400;2023-03-01T09:30:19;14.20;73.90
2112;DHT22;1062;52.538;13.400;2023-03-01T09:32:45;15.20;73.90
2112;DHT22;1062;52.538;13.400;2023-03-01T09:35:11;13.30;70.60
2112;DHT22;1062;52.538;13.400;2023-03-01T09:37:37;13.00;75.60
2112;DHT22;1062;52.538;13.400;2023-03-01T09:40:12;12.80;74.20
2112;DHT22;1062;52.538;13.400;2023-03-01T09:42:48;13.00;70.70
2112;DHT22;1062;52.538;13.400;2023-03-01T09:45:26;12.70;70.50
2112;DHT22;1062;52.538;13.400;2023-03-01T09:47:52;11.90;72.20
2112;DHT22;1062;52.538;13.400;2023-03-01T09:50:20;12.70;71.90
2112;DHT22;1062;52.538;13.400;2023-03-01T10:00:57;11.10;72.60
2112;DHT22;1062;52.538;13.400;2023-03-01T10:03:43;9.10;75.50
2112;DHT22;1062;52.538;13.400;2023-03-01T10:06:21;9.20;77.30
2112;DHT22;1062;52.538;13.400;2023-03-01T10:08:56;9.40;76.80
2112;DHT22;1062;52.538;13.400;2023-03-01T10:11:24;9.10;76.00
2112;DHT22;1062;52.538;13.400;2023-03-01T10:16:55;8.60;81.60
2112;DHT22;1062;52.538;13.400;2023-03-01T10:19:30;8.20;82.80
2112;DHT22;1062;52.538;13.400;2023-03-01T10:22:18;7.80;82.50
2112;DHT22;1062;52.538;13.400;2023-03-01T10:24:47;7.50;82.50
2112;DHT22;1062;52.538;13.400;2023-03-01T10:27:34;7.40;83.20
2112;DHT22;1062;52.538;13.400;2023-03-01T10:32:37;7.00;81.40
2112;DHT22;1062;52.538;13.400;2023-03-01T10:35:21;6.90;82.80
2112;DHT22;1062;52.538;13.400;2023-03-01T10:38:06;7.00;81.60
2112;DHT22;1062;52.538;13.400;2023-03-01T10:40:34;7.00;84.30
2112;DHT22;1062;52.538;13.400;2023-03-01T10:43:05;6.60;85.60
2112;DHT22;1062;52.538;13.400;2023-03-01T10:45:37;6.80;87.50
2112;DHT22;1062;52.538;13.400;2023-03-01T10:50:32;7.10;86.30
2112;DHT22;1062;52.538;13.400;2023-03-01T10:53:00;7.30;84.20
2112;DHT22;1062;52.538;13.400;2023-03-01T10:55:27;7.10;80.70
2112;DHT22;1062;52.538;13.400;2023-03-01T11:03:18;6.50;78.20
2112;DHT22;1062;52.538;13.400;2023-03-01T11:08:42;6.50;79.70
2112;DHT22;1062;52.538;13.400;2023-03-01T11:19:01;6.60;79.30
2112;DHT22;1062;52.538;13.400;2023-03-01T11:21:31;6.80;77.10
2112;DHT22;1062;52.538;13.400;2023-03-01T11:24:00;6.50;74.30
2112;DHT22;1062;52.538;13.400;2023-03-01T11:26:27;6.80;76.50
2112;DHT22;1062;52.538;13.400;2023-03-01T11:28:56;7.00;77.20
2112;DHT22;1062;52.538;13.400;2023-03-01T11:31:24;7.00;73.90
2112;DHT22;1062;52.538;13.400;2023-03-01T11:36:41;7.00;74.70
2112;DHT22;1062;52.538;13.400;2023-03-01T11:39:33;7.00;74.20
2112;DHT22;1062;52.538;13.400;2023-03-01T11:45:22;7.10;74.30
2112;DHT22;1062;52.538;13.400;2023-03-01T11:48:12;7.00;75.20
2112;DHT22;1062;52.538;13.400;2023-03-01T11:50:47;7.10;74.70
2112;DHT22;1062;52.538;13.400;2023-03-01T11:56:29;7.40;75.00
2112;DHT22;1062;52.538;13.400;2023-03-01T12:07:14;7.50;72.90
2112;DHT22;1062;52.538;13.400;2023-03-01T12:15:27;7.50;73.20
2112;DHT22;1062;52.538;13.400;2023-03-01T12:29:30;7.60;68.10
2112;DHT22;1062;52.538;13.400;2023-03-01T12:37:22;7.60;66.90
2112;DHT22;1062;52.538;13.400;2023-03-01T12:42:40;7.90;67.70
2112;DHT22;1062;52.538;13.400;2023-03-01T12:50:59;7.90;65.60
2112;DHT22;1062;52.538;13.400;2023-03-01T12:53:36;7.80;64.70
2112;DHT22;1062;52.538;13.400;2023-03-01T12:56:13;7.90;65.50
2112;DHT22;1062;52.538;13.400;2023-03-01T12:58:54;7.80;63.80
2112;DHT22;1062;52.538;13.400;2023-03-01T13:07:19;7.90;62.90
2112;DHT22;1062;52.538;13.400;2023-03-01T13:12:43;8.20;62.00
2112;DHT22;1062;52.538;13.400;2023-03-01T13:17:49;8.20;63.50
2112;DHT22;1062;52.538;13.400;2023-03-01T13:20:17;8.30;62.90
2112;DHT22;1062;52.538;13.400;2023-03-01T13:22:45;8.20;62.80
2112;DHT22;1062;52.538;13.400;2023-03-01T13:25:15;8.30;63.30
2112;DHT22;1062;52.538;13.400;2023-03-01T13:27:42;8.40;63.40
2112;DHT22;1062;52.538;13.400;2023-03-01T13:35:57;8.30;63.00
2112;DHT22;1062;52.538;13.400;2023-03-01T13:38:55;8.30;63.10
2112;DHT22;1062;52.538;13.400;2023-03-01T13:44:37;8.30;61.30
2112;DHT22;1062;52.538;13.400;2023-03-01T13:47:13;8.40;60.00
2112;DHT22;1062;52.538;13.400;2023-03-01T13:49:51;8.30;63.50
2112;DHT22;1062;52.538;13.400;2023-03-01T13:54:53;8.30;61.00
2112;DHT22;1062;52.538;13.400;2023-03-01T13:57:25;8.30;61.50
2112;DHT22;1062;52.538;13.400;2023-03-01T13:59:51;8.40;63.90
2112;DHT22;1062;52.538;13.400;2023-03-01T14:02:17;8.30;63.90
2112;DHT22;1062;52.538;13.400;2023-03-01T14:04:42;8.30;62.40
2112;DHT22;1062;52.538;13.400;2023-03-01T14:07:13;8.30;64.80
2112;DHT22;1062;52.538;13.400;2023-03-01T14:09:45;8.40;66.00
2112;DHT22;1062;52.538;13.400;2023-03-01T14:15:06;8.50;64.70
2112;DHT22;1062;52.538;13.400;2023-03-01T14:17:46;8.50;65.70
2112;DHT22;1062;52.538;13.400;2023-03-01T14:20:24;8.60;66.50
2112;DHT22;1062;52.538;13.400;2023-03-01T14:22:53;8.60;66.60
2112;DHT22;1062;52.538;13.400;2023-03-01T14:25:24;8.60;66.70
2112;DHT22;1062;52.538;13.400;2023-03-01T14:28:14;8.60;67.60
2112;DHT22;1062;52.538;13.400;2023-03-01T14:30:46;8.60;67.40
2112;DHT22;1062;52.538;13.400;2023-03-01T14:33:31;8.50;67.80
2112;DHT22;1062;52.538;13.400;2023-03-01T14:36:10;8.50;68.40
2112;DHT22;1062;52.538;13.400;2023-03-01T14:38:44;8.60;70.20
2112;DHT22;1062;52.538;13.400;2023-03-01T14:41:18;8.60;71.40
2112;DHT22;1062;52.538;13.400;2023-03-01T14:43:51;8.50;72.10
2112;DHT22;1062;52.538;13.400;2023-03-01T14:46:20;8.50;72.60
2112;DHT22;1062;52.538;13.400;2023-03-01T14:48:53;8.50;73.20
2112;DHT22;1062;52.538;13.400;2023-03-01T14:51:19;8.50;73.90
2112;DHT22;1062;52.538;13.400;2023-03-01T14:53:45;8.40;74.70
2112;DHT22;1062;52.538;13.400;2023-03-01T14:56:15;8.40;75.40
2112;DHT22;1062;52.538;13.400;2023-03-01T14:58:44;8.30;74.80
2112;DHT22;1062;52.538;13.400;2023-03-01T15:01:15;8.30;74.80
2112;DHT22;1062;52.538;13.400;2023-03-01T15:03:44;8.30;74.80
2112;DHT22;1062;52.538;13.400;2023-03-01T15:06:15;8.20;74.00
2112;DHT22;1062;52.538;13.400;2023-03-01T15:08:46;8.20;75.00
2112;DHT22;1062;52.538;13.400;2023-03-01T15:11:27;8.20;75.80
2112;DHT22;1062;52.538;13.400;2023-03-01T15:13:54;8.20;76.30
2112;DHT22;1062;52.538;13.400;2023-03-01T15:16:24;8.20;75.80
2112;DHT22;1062;52.538;13.400;2023-03-01T15:21:57;8.20;75.90
2112;DHT22;1062;52.538;13.400;2023-03-01T15:24:40;8.20;76.40
2112;DHT22;1062;52.538;13.400;2023-03-01T15:27:18;8.20;75.90
2112;DHT22;1062;52.538;13.400;2023-03-01T15:29:57;8.10;75.50
2112;DHT22;1062;52.538;13.400;2023-03-01T15:32:35;8.00;75.40
2112;DHT22;1062;52.538;13.400;2023-03-01T15:35:35;8.00;76.20
2112;DHT22;1062;52.538;13.400;2023-03-01T15:38:04;8.00;76.30
2112;DHT22;1062;52.538;13.400;2023-03-01T15:40:30;7.90;76.30
2112;DHT22;1062;52.538;13.400;2023-03-01T15:43:05;7.90;76.30
2112;DHT22;1062;52.538;13.400;2023-03-01T15:45:32;7.80;75.80
2112;DHT22;1062;52.538;13.400;2023-03-01T15:48:26;7.80;76.10
2112;DHT22;1062;52.538;13.400;2023-03-01T15:50:57;7.80;77.10
2112;DHT22;1062;52.538;13.400;2023-03-01T15:53:23;7.80;77.60
2112;DHT22;1062;52.538;13.400;2023-03-01T15:55:49;7.70;78.00
2112;DHT22;1062;52.538;13.400;2023-03-01T15:58:21;7.80;77.80
2112;DHT22;1062;52.538;13.400;2023-03-01T16:00:48;7.80;77.50
2112;DHT22;1062;52.538;13.400;2023-03-01T16:03:16;7.70;77.80
2112;DHT22;1062;52.538;13.400;2023-03-01T16:05:48;7.70;78.40
2112;DHT22;1062;52.538;13.400;2023-03-01T16:08:14;7.70;78.20
2112;DHT22;1062;52.538;13.400;2023-03-01T16:10:40;7.60;78.30
2112;DHT22;1062;52.538;13.400;2023-03-01T16:13:10;7.50;78.30
2112;DHT22;1062;52.538;13.400;2023-03-01T16:15:35;7.40;79.00
2112;DHT22;1062;52.538;13.400;2023-03-01T16:18:04;7.30;79.50
2112;DHT22;1062;52.538;13.400;2023-03-01T16:20:35;7.30;80.40
2112;DHT22;1062;52.538;13.400;2023-03-01T16:23:03;7.20;81.80
2112;DHT22;1062;52.538;13.400;2023-03-01T16:25:29;7.20;81.00
2112;DHT22;1062;52.538;13.400;2023-03-01T16:27:55;7.10;81.30
2112;DHT22;1062;52.538;13.400;2023-03-01T16:30:22;7.00;81.40
2112;DHT22;1062;52.538;13.400;2023-03-01T16:32:49;6.90;81.90
2112;DHT22;1062;52.538;13.400;2023-03-01T16:35:17;6.90;82.20
2112;DHT22;1062;52.538;13.400;2023-03-01T16:37:43;6.80;83.00
2112;DHT22;1062;52.538;13.400;2023-03-01T16:40:24;6.70;83.40
2112;DHT22;1062;52.538;13.400;2023-03-01T16:42:52;6.60;83.80
2112;DHT22;1062;52.538;13.400;2023-03-01T16:45:18;6.60;84.30
2112;DHT22;1062;52.538;13.400;2023-03-01T16:47:44;6.50;85.00
2112;DHT22;1062;52.538;13.400;2023-03-01T16:50:10;6.50;85.70
2112;DHT22;1062;52.538;13.400;2023-03-01T16:52:36;6.50;86.00
2112;DHT22;1062;52.538;13.400;2023-03-01T16:55:03;6.40;86.50
2112;DHT22;1062;52.538;13.400;2023-03-01T16:57:29;6.40;87.10
2112;DHT22;1062;52.538;13.400;2023-03-01T16:59:55;6.30;87.80
2112;DHT22;1062;52.538;13.400;2023-03-01T17:02:21;6.30;88.20
2112;DHT22;1062;52.538;13.400;2023-03-01T17:04:54;6.20;88.50
2112;DHT22;1062;52.538;13.400;2023-03-01T17:07:21;6.20;89.70
2112;DHT22;1062;52.538;13.400;2023-03-01T17:09:46;6.10;89.20
2112;DHT22;1062;52.538;13.400;2023-03-01T17:12:13;6.10;90.20
2112;DHT22;1062;52.538;13.400;2023-03-01T17:14:39;6.00;90.10
2112;DHT22;1062;52.538;13.400;2023-03-01T17:17:10;5.90;90.60
2112;DHT22;1062;52.538;13.400;2023-03-01T17:19:36;5.80;91.50
2112;DHT22;1062;52.538;13.400;2023-03-01T17:22:09;5.70;91.00
2112;DHT22;1062;52.538;13.400;2023-03-01T17:24:36;5.70;91.30
2112;DHT22;1062;52.538;13.400;2023-03-01T17:27:02;5.70;91.50
2112;DHT22;1062;52.538;13.400;2023-03-01T17:29:28;5.60;91.40
2112;DHT22;1062;52.538;13.400;2023-03-01T17:31:53;5.60;91.80
2112;DHT22;1062;52.538;13.400;2023-03-01T17:34:21;5.50;92.10
2112;DHT22;1062;52.538;13.400;2023-03-01T17:36:46;5.50;92.60
2112;DHT22;1062;52.538;13.400;2023-03-01T17:39:15;5.40;92.70
2112;DHT22;1062;52.538;13.400;2023-03-01T17:41:42;5.40;92.80
2112;DHT22;1062;52.538;13.400;2023-03-01T17:44:07;5.40;92.80
2112;DHT22;1062;52.538;13.400;2023-03-01T17:46:33;5.30;93.00
2112;DHT22;1062;52.538;13.400;2023-03-01T17:48:59;5.30;93.20
2112;DHT22;1062;52.538;13.400;2023-03-01T17:51:24;5.10;93.30
2112;DHT22;1062;52.538;13.400;2023-03-01T17:53:50;5.20;93.60
2112;DHT22;1062;52.538;13.400;2023-03-01T17:56:16;5.20;93.70
2112;DHT22;1062;52.538;13.400;2023-03-01T17:58:42;5.30;93.70
2112;DHT22;1062;52.538;13.400;2023-03-01T18:01:08;5.20;93.90